sensor_id;sensor_type;location;lat;lon;timestamp;P1;durP1;ratioP1;P2;durP2;ratioP2
24173;SDS011;12324;48.146;11.502;2022-09-20T00:01:02;4.30;;;1.70;;
24173;SDS011;12324;48.146;11.502;2022-09-20T00:03:32;2.90;;;1.20;;
24173;SDS011;12324;48.146;11.502;2022-09-20T00:06:01;3.17;;;1.35;;
24173;SDS011;12324;48.146;11.502;2022-09-20T00:08:28;1.55;;;1.23;;
24173;SDS011;12324;48.146;11.502;2022-09-20T00:11:02;3.95;;;1.85;;
24173;SDS011;12324;48.146;11.502;2022-09-20T00:13:31;1.45;;;1.35;;
24173;SDS011;12324;48.146;11.502;2022-09-20T00:15:59;1.52;;;1.30;;
24173;SDS011;12324;48.146;11.502;2022-09-20T00:18:33;2.80;;;1.30;;
24173;SDS011;12324;48.146;11.502;2022-09-20T00:21:01;6.22;;;1.77;;
24173;SDS011;12324;48.146;11.502;2022-09-20T00:23:28;1.67;;;1.40;;
24173;SDS011;12324;48.146;11.502;2022-09-20T00:28:26;4.25;;;1.80;;
24173;SDS011;12324;48.146;11.502;2022-09-20T00:30:54;1.42;;;1.27;;
24173;SDS011;12324;48.146;11.502;2022-09-20T00:33:22;2.13;;;1.70;;
24173;SDS011;12324;48.146;11.502;2022-09-20T00:35:51;2.83;;;1.52;;
24173;SDS011;12324;48.146;11.502;2022-09-20T00:38:17;2.63;;;1.70;;
24173;SDS011;12324;48.146;11.502;2022-09-20T00:40:44;4.45;;;1.75;;
24173;SDS011;12324;48.146;11.502;2022-09-20T00:43:14;1.83;;;1.48;;
24173;SDS011;12324;48.146;11.502;2022-09-20T00:45:45;5.88;;;1.80;;
24173;SDS011;12324;48.146;11.502;2022-09-20T00:48:16;1.58;;;1.48;;
24173;SDS011;12324;48.146;11.502;2022-09-20T00:50:54;6.53;;;2.00;;
24173;SDS011;12324;48.146;11.502;2022-09-20T00:53:33;2.67;;;1.40;;
24173;SDS011;12324;48.146;11.502;2022-09-20T00:56:06;4.70;;;1.65;;
24173;SDS011;12324;48.146;11.502;2022-09-20T00:58:40;1.85;;;1.40;;
24173;SDS011;12324;48.146;11.502;2022-09-20T01:01:15;5.30;;;1.70;;
24173;SDS011;12324;48.146;11.502;2022-09-20T01:03:43;3.03;;;1.10;;
24173;SDS011;12324;48.146;11.502;2022-09-20T01:06:11;2.03;;;1.67;;
24173;SDS011;12324;48.146;11.502;2022-09-20T01:08:39;3.55;;;1.40;;
24173;SDS011;12324;48.146;11.502;2022-09-20T01:11:10;4.35;;;1.60;;
24173;SDS011;12324;48.146;11.502;2022-09-20T01:13:37;6.97;;;1.65;;
24173;SDS011;12324;48.146;11.502;2022-09-20T01:16:04;1.40;;;1.15;;
24173;SDS011;12324;48.146;11.502;2022-09-20T01:18:32;2.20;;;1.52;;
24173;SDS011;12324;48.146;11.502;2022-09-20T01:20:59;2.30;;;1.13;;
24173;SDS011;12324;48.146;11.502;2022-09-20T01:26:47;5.57;;;1.70;;
24173;SDS011;12324;48.146;11.502;2022-09-20T01:29:31;2.70;;;1.48;;
24173;SDS011;12324;48.146;11.502;2022-09-20T01:32:08;3.88;;;1.65;;
24173;SDS011;12324;48.146;11.502;2022-09-20T01:34:42;3.22;;;1.50;;
24173;SDS011;12324;48.146;11.502;2022-09-20T01:37:15;2.08;;;1.23;;
24173;SDS011;12324;48.146;11.502;2022-09-20T01:43:07;4.88;;;2.40;;
24173;SDS011;12324;48.146;11.502;2022-09-20T01:45:47;4.70;;;2.10;;
24173;SDS011;12324;48.146;11.502;2022-09-20T01:53:53;4.03;;;1.77;;
24173;SDS011;12324;48.146;11.502;2022-09-20T02:05:09;5.53;;;1.63;;
24173;SDS011;12324;48.146;11.502;2022-09-20T02:08:47;3.33;;;1.52;;
24173;SDS011;12324;48.146;11.502;2022-09-20T02:11:03;3.13;;;1.85;;
24173;SDS011;12324;48.146;11.502;2022-09-20T02:19:32;1.30;;;1.20;;
24173;SDS011;12324;48.146;11.502;2022-09-20T02:33:51;7.07;;;2.05;;
24173;SDS011;12324;48.146;11.502;2022-09-20T02:39:38;3.72;;;1.50;;
24173;SDS011;12324;48.146;11.502;2022-09-20T02:42:17;2.25;;;1.70;;
24173;SDS011;12324;48.146;11.502;2022-09-20T02:45:07;2.60;;;1.52;;
24173;SDS011;12324;48.146;11.502;2022-09-20T02:47:41;4.55;;;2.00;;
24173;SDS011;12324;48.146;11.502;2022-09-20T02:55:42;1.75;;;1.42;;
24173;SDS011;12324;48.146;11.502;2022-09-20T02:58:24;2.70;;;1.77;;
24173;SDS011;12324;48.146;11.502;2022-09-20T03:06:56;2.95;;;1.70;;
24173;SDS011;12324;48.146;11.502;2022-09-20T03:17:54;3.45;;;1.83;;
24173;SDS011;12324;48.146;11.502;2022-09-20T03:20:42;2.70;;;1.80;;
24173;SDS011;12324;48.146;11.502;2022-09-20T03:34:10;7.97;;;2.70;;
24173;SDS011;12324;48.146;11.502;2022-09-20T03:36:52;3.60;;;1.85;;
24173;SDS011;12324;48.146;11.502;2022-09-20T03:42:48;1.92;;;1.52;;
24173;SDS011;12324;48.146;11.502;2022-09-20T03:45:34;4.63;;;2.30;;
24173;SDS011;12324;48.146;11.502;2022-09-20T03:54:26;4.72;;;1.50;;
24173;SDS011;12324;48.146;11.502;2022-09-20T04:06:29;3.50;;;1.92;;
24173;SDS011;12324;48.146;11.502;2022-09-20T04:17:40;3.30;;;2.20;;
24173;SDS011;12324;48.146;11.502;2022-09-20T04:23:14;4.15;;;2.10;;
24173;SDS011;12324;48.146;11.502;2022-09-20T04:26:00;3.35;;;2.08;;
24173;SDS011;12324;48.146;11.502;2022-09-20T04:28:33;4.47;;;2.33;;
24173;SDS011;12324;48.146;11.502;2022-09-20T04:31:11;7.07;;;2.10;;
24173;SDS011;12324;48.146;11.502;2022-09-20T04:34:01;2.83;;;1.77;;
24173;SDS011;12324;48.146;11.502;2022-09-20T04:45:16;4.63;;;2.15;;
24173;SDS011;12324;48.146;11.502;2022-09-20T04:59:09;4.95;;;1.95;;
24173;SDS011;12324;48.146;11.502;2022-09-20T05:01:58;5.03;;;2.58;;
24173;SDS011;12324;48.146;11.502;2022-09-20T05:05:08;3.85;;;2.33;;
24173;SDS011;12324;48.146;11.502;2022-09-20T05:08:15;5.82;;;2.10;;
24173;SDS011;12324;48.146;11.502;2022-09-20T05:13:29;4.53;;;2.55;;
24173;SDS011;12324;48.146;11.502;2022-09-20T05:16:03;8.60;;;3.00;;
24173;SDS011;12324;48.146;11.502;2022-09-20T05:19:01;4.95;;;2.22;;
24173;SDS011;12324;48.146;11.502;2022-09-20T05:21:49;5.28;;;2.67;;
24173;SDS011;12324;48.146;11.502;2022-09-20T05:27:01;4.50;;;2.55;;
24173;SDS011;12324;48.146;11.502;2022-09-20T05:32:24;6.53;;;3.33;;
24173;SDS011;12324;48.146;11.502;2022-09-20T05:34:59;7.55;;;2.63;;
24173;SDS011;12324;48.146;11.502;2022-09-20T05:37:59;11.13;;;3.53;;
24173;SDS011;12324;48.146;11.502;2022-09-20T05:40:32;8.52;;;3.08;;
24173;SDS011;12324;48.146;11.502;2022-09-20T05:43:24;7.22;;;2.55;;
24173;SDS011;12324;48.146;11.502;2022-09-20T05:48:45;5.18;;;2.83;;
24173;SDS011;12324;48.146;11.502;2022-09-20T05:51:53;8.93;;;3.25;;
24173;SDS011;12324;48.146;11.502;2022-09-20T05:57:43;10.55;;;3.15;;
24173;SDS011;12324;48.146;11.502;2022-09-20T06:00:47;3.45;;;2.15;;
24173;SDS011;12324;48.146;11.502;2022-09-20T06:19:23;8.82;;;2.90;;
24173;SDS011;12324;48.146;11.502;2022-09-20T06:22:15;6.45;;;2.30;;
24173;SDS011;12324;48.146;11.502;2022-09-20T06:27:37;6.50;;;2.45;;
24173;SDS011;12324;48.146;11.502;2022-09-20T06:32:53;5.72;;;2.92;;
24173;SDS011;12324;48.146;11.502;2022-09-20T06:35:32;5.47;;;2.42;;
24173;SDS011;12324;48.146;11.502;2022-09-20T06:41:16;5.07;;;2.70;;
24173;SDS011;12324;48.146;11.502;2022-09-20T06:43:54;5.72;;;2.40;;
24173;SDS011;12324;48.146;11.502;2022-09-20T06:46:27;8.40;;;3.47;;
24173;SDS011;12324;48.146;11.502;2022-09-20T06:48:56;4.63;;;2.45;;
24173;SDS011;12324;48.146;11.502;2022-09-20T06:51:24;7.75;;;2.65;;
24173;SDS011;12324;48.146;11.502;2022-09-20T06:53:52;4.82;;;2.65;;
24173;SDS011;12324;48.146;11.502;2022-09-20T06:56:21;6.32;;;2.67;;
24173;SDS011;12324;48.146;11.502;2022-09-20T06:58:51;7.43;;;2.42;;
24173;SDS011;12324;48.146;11.502;2022-09-20T07:01:18;5.47;;;2.70;;
24173;SDS011;12324;48.146;11.502;2022-09-20T07:03:55;6.20;;;2.58;;
24173;SDS011;12324;48.146;11.502;2022-09-20T07:06:23;6.28;;;2.50;;
24173;SDS011;12324;48.146;11.502;2022-09-20T07:08:50;10.13;;;2.90;;
24173;SDS011;12324;48.146;11.502;2022-09-20T07:11:17;7.03;;;3.17;;
24173;SDS011;12324;48.146;11.502;2022-09-20T07:13:44;8.95;;;2.78;;
24173;SDS011;12324;48.146;11.502;2022-09-20T07:16:15;5.78;;;2.20;;
24173;SDS011;12324;48.146;11.502;2022-09-20T07:18:42;4.70;;;2.33;;
24173;SDS011;12324;48.146;11.502;2022-09-20T07:21:12;6.80;;;2.67;;
24173;SDS011;12324;48.146;11.502;2022-09-20T07:23:40;5.32;;;2.80;;
24173;SDS011;12324;48.146;11.502;2022-09-20T07:26:17;7.45;;;2.45;;
24173;SDS011;12324;48.146;11.502;2022-09-20T07:28:45;5.78;;;2.85;;
24173;SDS011;12324;48.146;11.502;2022-09-20T07:31:12;9.05;;;2.45;;
24173;SDS011;12324;48.146;11.502;2022-09-20T07:33:39;8.82;;;2.58;;
24173;SDS011;12324;48.146;11.502;2022-09-20T07:36:06;6.38;;;2.30;;
24173;SDS011;12324;48.146;11.502;2022-09-20T07:38:32;6.95;;;2.45;;
24173;SDS011;12324;48.146;11.502;2022-09-20T07:40:59;7.30;;;2.20;;
24173;SDS011;12324;48.146;11.502;2022-09-20T07:43:27;8.90;;;2.92;;
24173;SDS011;12324;48.146;11.502;2022-09-20T07:45:55;4.32;;;2.45;;
24173;SDS011;12324;48.146;11.502;2022-09-20T07:48:27;4.00;;;2.55;;
24173;SDS011;12324;48.146;11.502;2022-09-20T07:51:06;6.68;;;2.83;;
24173;SDS011;12324;48.146;11.502;2022-09-20T07:53:34;10.13;;;3.28;;
24173;SDS011;12324;48.146;11.502;2022-09-20T07:56:03;5.93;;;2.92;;
24173;SDS011;12324;48.146;11.502;2022-09-20T07:58:36;4.70;;;2.78;;
24173;SDS011;12324;48.146;11.502;2022-09-20T08:01:04;6.07;;;2.72;;
24173;SDS011;12324;48.146;11.502;2022-09-20T08:03:33;7.47;;;3.22;;
24173;SDS011;12324;48.146;11.502;2022-09-20T08:06:04;8.45;;;3.33;;
24173;SDS011;12324;48.146;11.502;2022-09-20T08:08:33;10.82;;;3.35;;
24173;SDS011;12324;48.146;11.502;2022-09-20T08:11:05;6.03;;;3.00;;
24173;SDS011;12324;48.146;11.502;2022-09-20T08:13:37;10.07;;;3.35;;
24173;SDS011;12324;48.146;11.502;2022-09-20T08:16:25;10.38;;;3.92;;
24173;SDS011;12324;48.146;11.502;2022-09-20T08:18:55;7.70;;;3.40;;
24173;SDS011;12324;48.146;11.502;2022-09-20T08:21:24;7.10;;;3.45;;
24173;SDS011;12324;48.146;11.502;2022-09-20T08:23:52;7.10;;;3.80;;
24173;SDS011;12324;48.146;11.502;2022-09-20T08:26:20;8.00;;;3.35;;
24173;SDS011;12324;48.146;11.502;2022-09-20T08:28:50;10.35;;;4.03;;
24173;SDS011;12324;48.146;11.502;2022-09-20T08:31:19;7.40;;;4.03;;
24173;SDS011;12324;48.146;11.502;2022-09-20T08:33:49;8.70;;;4.00;;
24173;SDS011;12324;48.146;11.502;2022-09-20T08:36:17;12.88;;;4.50;;
24173;SDS011;12324;48.146;11.502;2022-09-20T08:38:46;10.45;;;4.75;;
24173;SDS011;12324;48.146;11.502;2022-09-20T08:41:35;10.25;;;5.10;;
24173;SDS011;12324;48.146;11.502;2022-09-20T08:44:21;15.57;;;5.10;;
24173;SDS011;12324;48.146;11.502;2022-09-20T08:47:24;11.68;;;4.65;;
24173;SDS011;12324;48.146;11.502;2022-09-20T08:50:05;9.48;;;4.45;;
24173;SDS011;12324;48.146;11.502;2022-09-20T08:52:35;11.05;;;4.53;;
24173;SDS011;12324;48.146;11.502;2022-09-20T08:55:24;10.90;;;4.18;;
24173;SDS011;12324;48.146;11.502;2022-09-20T08:58:07;11.70;;;4.35;;
24173;SDS011;12324;48.146;11.502;2022-09-20T09:00:36;10.20;;;4.50;;
24173;SDS011;12324;48.146;11.502;2022-09-20T09:03:05;8.90;;;4.18;;
24173;SDS011;12324;48.146;11.502;2022-09-20T09:05:36;6.50;;;4.03;;
24173;SDS011;12324;48.146;11.502;2022-09-20T09:08:11;11.88;;;4.82;;
24173;SDS011;12324;48.146;11.502;2022-09-20T09:10:45;7.13;;;3.70;;
24173;SDS011;12324;48.146;11.502;2022-09-20T09:13:20;10.73;;;4.43;;
24173;SDS011;12324;48.146;11.502;2022-09-20T09:15:58;9.68;;;4.38;;
24173;SDS011;12324;48.146;11.502;2022-09-20T09:18:30;11.52;;;4.47;;
24173;SDS011;12324;48.146;11.502;2022-09-20T09:21:05;9.88;;;4.55;;
24173;SDS011;12324;48.146;11.502;2022-09-20T09:23:38;11.32;;;5.03;;
24173;SDS011;12324;48.146;11.502;2022-09-20T09:26:13;13.93;;;5.15;;
24173;SDS011;12324;48.146;11.502;2022-09-20T09:28:41;10.50;;;3.92;;
24173;SDS011;12324;48.146;11.502;2022-09-20T09:31:18;13.73;;;4.38;;
24173;SDS011;12324;48.146;11.502;2022-09-20T09:33:46;7.40;;;3.58;;
24173;SDS011;12324;48.146;11.502;2022-09-20T09:36:21;12.05;;;4.57;;
24173;SDS011;12324;48.146;11.502;2022-09-20T09:38:49;8.45;;;3.70;;
24173;SDS011;12324;48.146;11.502;2022-09-20T09:46:30;10.82;;;3.13;;
24173;SDS011;12324;48.146;11.502;2022-09-20T09:51:36;6.45;;;3.17;;
24173;SDS011;12324;48.146;11.502;2022-09-20T09:54:04;6.07;;;2.90;;
24173;SDS011;12324;48.146;11.502;2022-09-20T09:56:35;6.35;;;2.97;;
24173;SDS011;12324;48.146;11.502;2022-09-20T10:01:38;5.97;;;2.70;;
24173;SDS011;12324;48.146;11.502;2022-09-20T10:06:49;5.00;;;2.90;;
24173;SDS011;12324;48.146;11.502;2022-09-20T10:11:55;6.75;;;2.80;;
24173;SDS011;12324;48.146;11.502;2022-09-20T10:17:04;10.35;;;2.58;;
24173;SDS011;12324;48.146;11.502;2022-09-20T10:22:10;8.73;;;2.65;;
24173;SDS011;12324;48.146;11.502;2022-09-20T10:30:07;7.45;;;2.67;;
24173;SDS011;12324;48.146;11.502;2022-09-20T10:35:19;8.38;;;3.22;;
24173;SDS011;12324;48.146;11.502;2022-09-20T10:40:26;5.63;;;2.42;;
24173;SDS011;12324;48.146;11.502;2022-09-20T10:43:22;4.43;;;2.15;;
24173;SDS011;12324;48.146;11.502;2022-09-20T10:46:06;4.07;;;2.25;;
24173;SDS011;12324;48.146;11.502;2022-09-20T10:59:43;7.03;;;2.47;;
24173;SDS011;12324;48.146;11.502;2022-09-20T11:04:45;3.47;;;1.98;;
24173;SDS011;12324;48.146;11.502;2022-09-20T11:09:56;4.95;;;2.22;;
24173;SDS011;12324;48.146;11.502;2022-09-20T11:15:26;9.68;;;2.65;;
24173;SDS011;12324;48.146;11.502;2022-09-20T11:20:22;6.72;;;1.98;;
24173;SDS011;12324;48.146;11.502;2022-09-20T11:25:39;5.13;;;1.92;;
24173;SDS011;12324;48.146;11.502;2022-09-20T11:28:24;6.05;;;2.55;;
24173;SDS011;12324;48.146;11.502;2022-09-20T11:30:54;7.45;;;2.05;;
24173;SDS011;12324;48.146;11.502;2022-09-20T11:36:16;7.72;;;2.20;;
24173;SDS011;12324;48.146;11.502;2022-09-20T11:41:23;4.15;;;1.77;;
24173;SDS011;12324;48.146;11.502;2022-09-20T11:43:52;7.45;;;2.00;;
24173;SDS011;12324;48.146;11.502;2022-09-20T11:46:22;5.55;;;2.03;;
24173;SDS011;12324;48.146;11.502;2022-09-20T11:49:02;7.03;;;2.20;;
24173;SDS011;12324;48.146;11.502;2022-09-20T11:57:01;5.20;;;1.60;;
24173;SDS011;12324;48.146;11.502;2022-09-20T11:59:38;4.30;;;2.13;;
24173;SDS011;12324;48.146;11.502;2022-09-20T12:04:49;4.82;;;1.63;;
24173;SDS011;12324;48.146;11.502;2022-09-20T12:07:25;7.13;;;1.83;;
24173;SDS011;12324;48.146;11.502;2022-09-20T12:14:53;3.58;;;1.83;;
24173;SDS011;12324;48.146;11.502;2022-09-20T12:22:53;6.80;;;1.88;;
24173;SDS011;12324;48.146;11.502;2022-09-20T12:25:57;3.28;;;1.40;;
24173;SDS011;12324;48.146;11.502;2022-09-20T12:28:32;5.03;;;1.55;;
24173;SDS011;12324;48.146;11.502;2022-09-20T12:31:35;5.38;;;1.92;;
24173;SDS011;12324;48.146;11.502;2022-09-20T12:33:57;7.22;;;1.85;;
24173;SDS011;12324;48.146;11.502;2022-09-20T12:36:34;5.85;;;2.15;;
24173;SDS011;12324;48.146;11.502;2022-09-20T12:41:43;6.68;;;1.52;;
24173;SDS011;12324;48.146;11.502;2022-09-20T12:46:59;3.58;;;1.60;;
24173;SDS011;12324;48.146;11.502;2022-09-20T12:49:31;5.65;;;1.73;;
24173;SDS011;12324;48.146;11.502;2022-09-20T12:52:22;5.53;;;2.08;;
24173;SDS011;12324;48.146;11.502;2022-09-20T12:55:08;5.88;;;1.98;;
24173;SDS011;12324;48.146;11.502;2022-09-20T12:57:36;3.83;;;2.17;;
24173;SDS011;12324;48.146;11.502;2022-09-20T13:00:05;7.47;;;1.88;;
24173;SDS011;12324;48.146;11.502;2022-09-20T13:05:31;4.97;;;1.60;;
24173;SDS011;12324;48.146;11.502;2022-09-20T13:08:03;3.50;;;1.60;;
24173;SDS011;12324;48.146;11.502;2022-09-20T13:10:35;6.22;;;1.75;;
24173;SDS011;12324;48.146;11.502;2022-09-20T13:13:10;5.28;;;1.65;;
24173;SDS011;12324;48.146;11.502;2022-09-20T13:15:38;4.90;;;1.75;;
24173;SDS011;12324;48.146;11.502;2022-09-20T13:18:05;2.83;;;1.90;;
24173;SDS011;12324;48.146;11.502;2022-09-20T13:20:33;6.80;;;1.60;;
24173;SDS011;12324;48.146;11.502;2022-09-20T13:23:02;1.73;;;1.50;;
24173;SDS011;12324;48.146;11.502;2022-09-20T13:25:30;2.13;;;1.40;;
24173;SDS011;12324;48.146;11.502;2022-09-20T13:28:06;6.53;;;1.92;;
24173;SDS011;12324;48.146;11.502;2022-09-20T13:30:33;5.57;;;1.73;;
24173;SDS011;12324;48.146;11.502;2022-09-20T13:33:19;8.40;;;1.42;;
24173;SDS011;12324;48.146;11.502;2022-09-20T13:35:48;7.43;;;1.52;;
24173;SDS011;12324;48.146;11.502;2022-09-20T13:38:16;3.33;;;1.35;;
24173;SDS011;12324;48.146;11.502;2022-09-20T13:40:50;2.75;;;1.23;;
24173;SDS011;12324;48.146;11.502;2022-09-20T13:43:29;6.18;;;1.80;;
24173;SDS011;12324;48.146;11.502;2022-09-20T13:45:58;1.65;;;1.25;;
24173;SDS011;12324;48.146;11.502;2022-09-20T13:48:29;1.55;;;1.40;;
24173;SDS011;12324;48.146;11.502;2022-09-20T13:50:56;7.00;;;1.63;;
24173;SDS011;12324;48.146;11.502;2022-09-20T13:53:24;7.10;;;2.33;;
24173;SDS011;12324;48.146;11.502;2022-09-20T13:58:43;4.93;;;1.48;;
24173;SDS011;12324;48.146;11.502;2022-09-20T14:01:29;6.90;;;1.90;;
24173;SDS011;12324;48.146;11.502;2022-09-20T14:06:53;3.75;;;1.23;;
24173;SDS011;12324;48.146;11.502;2022-09-20T14:09:34;2.28;;;1.48;;
24173;SDS011;12324;48.146;11.502;2022-09-20T14:12:02;3.88;;;1.45;;
24173;SDS011;12324;48.146;11.502;2022-09-20T14:14:30;4.07;;;1.45;;
24173;SDS011;12324;48.146;11.502;2022-09-20T14:17:00;1.50;;;1.30;;
24173;SDS011;12324;48.146;11.502;2022-09-20T14:19:31;4.53;;;1.52;;
24173;SDS011;12324;48.146;11.502;2022-09-20T14:22:01;3.85;;;1.58;;
24173;SDS011;12324;48.146;11.502;2022-09-20T14:24:38;4.30;;;1.90;;
24173;SDS011;12324;48.146;11.502;2022-09-20T14:27:12;3.92;;;1.38;;
24173;SDS011;12324;48.146;11.502;2022-09-20T14:34:43;3.97;;;1.40;;
24173;SDS011;12324;48.146;11.502;2022-09-20T14:37:33;3.45;;;1.58;;
24173;SDS011;12324;48.146;11.502;2022-09-20T14:40:15;4.57;;;1.42;;
24173;SDS011;12324;48.146;11.502;2022-09-20T14:47:53;4.60;;;1.42;;
24173;SDS011;12324;48.146;11.502;2022-09-20T14:50:23;1.73;;;1.20;;
24173;SDS011;12324;48.146;11.502;2022-09-20T14:56:49;2.63;;;1.23;;
24173;SDS011;12324;48.146;11.502;2022-09-20T14:59:02;3.97;;;1.65;;
24173;SDS011;12324;48.146;11.502;2022-09-20T15:01:32;1.63;;;1.23;;
24173;SDS011;12324;48.146;11.502;2022-09-20T15:04:16;4.43;;;1.33;;
24173;SDS011;12324;48.146;11.502;2022-09-20T15:06:47;3.08;;;1.35;;
24173;SDS011;12324;48.146;11.502;2022-09-20T15:09:15;3.00;;;1.23;;
24173;SDS011;12324;48.146;11.502;2022-09-20T15:11:43;4.57;;;1.42;;
24173;SDS011;12324;48.146;11.502;2022-09-20T15:14:10;2.88;;;1.45;;
24173;SDS011;12324;48.146;11.502;2022-09-20T15:16:37;4.75;;;1.33;;
24173;SDS011;12324;48.146;11.502;2022-09-20T15:19:03;5.30;;;1.52;;
24173;SDS011;12324;48.146;11.502;2022-09-20T15:21:33;5.57;;;2.00;;
24173;SDS011;12324;48.146;11.502;2022-09-20T15:23:59;5.35;;;1.83;;
24173;SDS011;12324;48.146;11.502;2022-09-20T15:26:26;2.30;;;1.27;;
24173;SDS011;12324;48.146;11.502;2022-09-20T15:28:53;3.22;;;1.30;;
24173;SDS011;12324;48.146;11.502;2022-09-20T15:31:19;4.13;;;1.35;;
24173;SDS011;12324;48.146;11.502;2022-09-20T15:33:46;4.93;;;1.42;;
24173;SDS011;12324;48.146;11.502;2022-09-20T15:36:13;4.20;;;1.20;;
24173;SDS011;12324;48.146;11.502;2022-09-20T15:38:39;4.38;;;1.33;;
24173;SDS011;12324;48.146;11.502;2022-09-20T15:41:06;6.68;;;1.60;;
24173;SDS011;12324;48.146;11.502;2022-09-20T15:43:33;2.33;;;1.25;;
24173;SDS011;12324;48.146;11.502;2022-09-20T15:46:00;3.75;;;1.55;;
24173;SDS011;12324;48.146;11.502;2022-09-20T15:48:49;1.67;;;1.25;;
24173;SDS011;12324;48.146;11.502;2022-09-20T15:51:16;3.45;;;1.50;;
24173;SDS011;12324;48.146;11.502;2022-09-20T15:53:44;4.05;;;1.95;;
24173;SDS011;12324;48.146;11.502;2022-09-20T15:56:18;2.58;;;1.23;;
24173;SDS011;12324;48.146;11.502;2022-09-20T15:58:50;3.38;;;1.30;;
24173;SDS011;12324;48.146;11.502;2022-09-20T16:01:24;2.75;;;1.30;;
24173;SDS011;12324;48.146;11.502;2022-09-20T16:03:52;2.83;;;1.38;;
24173;SDS011;12324;48.146;11.502;2022-09-20T16:06:20;6.28;;;1.50;;
24173;SDS011;12324;48.146;11.502;2022-09-20T16:08:48;2.50;;;1.15;;
24173;SDS011;12324;48.146;11.502;2022-09-20T16:11:16;6.88;;;2.08;;
24173;SDS011;12324;48.146;11.502;2022-09-20T16:13:52;1.60;;;1.17;;
24173;SDS011;12324;48.146;11.502;2022-09-20T16:16:19;2.38;;;1.40;;
24173;SDS011;12324;48.146;11.502;2022-09-20T16:18:46;6.88;;;1.83;;
24173;SDS011;12324;48.146;11.502;2022-09-20T16:21:32;9.10;;;2.03;;
24173;SDS011;12324;48.146;11.502;2022-09-20T16:23:59;4.78;;;1.27;;
24173;SDS011;12324;48.146;11.502;2022-09-20T16:26:27;5.70;;;2.08;;
24173;SDS011;12324;48.146;11.502;2022-09-20T16:28:54;6.20;;;1.55;;
24173;SDS011;12324;48.146;11.502;2022-09-20T16:33:58;4.82;;;1.60;;
24173;SDS011;12324;48.146;11.502;2022-09-20T16:36:25;10.32;;;1.45;;
24173;SDS011;12324;48.146;11.502;2022-09-20T16:38:52;4.68;;;1.35;;
24173;SDS011;12324;48.146;11.502;2022-09-20T16:41:21;6.45;;;2.00;;
24173;SDS011;12324;48.146;11.502;2022-09-20T16:43:49;2.47;;;1.33;;
24173;SDS011;12324;48.146;11.502;2022-09-20T16:46:20;3.17;;;1.70;;
24173;SDS011;12324;48.146;11.502;2022-09-20T16:48:50;3.70;;;1.40;;
24173;SDS011;12324;48.146;11.502;2022-09-20T16:51:22;6.47;;;1.65;;
24173;SDS011;12324;48.146;11.502;2022-09-20T16:53:50;4.32;;;1.27;;
24173;SDS011;12324;48.146;11.502;2022-09-20T16:56:21;4.68;;;1.80;;
24173;SDS011;12324;48.146;11.502;2022-09-20T16:58:49;9.90;;;1.95;;
24173;SDS011;12324;48.146;11.502;2022-09-20T17:01:16;3.63;;;1.42;;
24173;SDS011;12324;48.146;11.502;2022-09-20T17:03:43;2.20;;;1.30;;
24173;SDS011;12324;48.146;11.502;2022-09-20T17:06:11;4.50;;;1.52;;
24173;SDS011;12324;48.146;11.502;2022-09-20T17:08:39;6.15;;;2.17;;
24173;SDS011;12324;48.146;11.502;2022-09-20T17:11:07;4.82;;;1.63;;
24173;SDS011;12324;48.146;11.502;2022-09-20T17:13:38;4.13;;;1.70;;
24173;SDS011;12324;48.146;11.502;2022-09-20T17:16:08;4.10;;;1.88;;
24173;SDS011;12324;48.146;11.502;2022-09-20T17:18:35;1.25;;;1.13;;
24173;SDS011;12324;48.146;11.502;2022-09-20T17:21:08;4.97;;;1.42;;
24173;SDS011;12324;48.146;11.502;2022-09-20T17:23:42;4.03;;;1.20;;
24173;SDS011;12324;48.146;11.502;2022-09-20T17:26:23;3.95;;;1.45;;
24173;SDS011;12324;48.146;11.502;2022-09-20T17:28:52;6.88;;;2.80;;
24173;SDS011;12324;48.146;11.502;2022-09-20T17:31:22;5.88;;;1.50;;
24173;SDS011;12324;48.146;11.502;2022-09-20T17:33:53;5.50;;;1.77;;
24173;SDS011;12324;48.146;11.502;2022-09-20T17:36:20;8.00;;;2.15;;
24173;SDS011;12324;48.146;11.502;2022-09-20T17:38:51;10.07;;;2.30;;
24173;SDS011;12324;48.146;11.502;2022-09-20T17:41:19;9.30;;;2.30;;
24173;SDS011;12324;48.146;11.502;2022-09-20T17:43:47;4.28;;;1.92;;
24173;SDS011;12324;48.146;11.502;2022-09-20T17:46:18;4.97;;;1.60;;
24173;SDS011;12324;48.146;11.502;2022-09-20T17:48:50;3.28;;;1.60;;
24173;SDS011;12324;48.146;11.502;2022-09-20T17:51:28;3.67;;;2.03;;
24173;SDS011;12324;48.146;11.502;2022-09-20T17:53:56;4.70;;;1.70;;
24173;SDS011;12324;48.146;11.502;2022-09-20T17:56:24;7.13;;;2.42;;
24173;SDS011;12324;48.146;11.502;2022-09-20T17:58:56;9.48;;;2.20;;
24173;SDS011;12324;48.146;11.502;2022-09-20T18:01:25;5.90;;;2.25;;
24173;SDS011;12324;48.146;11.502;2022-09-20T18:03:53;5.03;;;2.20;;
24173;SDS011;12324;48.146;11.502;2022-09-20T18:06:22;6.65;;;2.05;;
24173;SDS011;12324;48.146;11.502;2022-09-20T18:08:55;5.75;;;2.50;;
24173;SDS011;12324;48.146;11.502;2022-09-20T18:11:26;4.45;;;1.90;;
24173;SDS011;12324;48.146;11.502;2022-09-20T18:13:54;5.72;;;2.08;;
24173;SDS011;12324;48.146;11.502;2022-09-20T18:16:21;3.92;;;1.80;;
24173;SDS011;12324;48.146;11.502;2022-09-20T18:18:48;6.07;;;1.95;;
24173;SDS011;12324;48.146;11.502;2022-09-20T18:21:17;4.97;;;1.88;;
24173;SDS011;12324;48.146;11.502;2022-09-20T18:23:46;3.30;;;1.70;;
24173;SDS011;12324;48.146;11.502;2022-09-20T18:26:14;4.05;;;1.80;;
24173;SDS011;12324;48.146;11.502;2022-09-20T18:28:56;11.48;;;2.50;;
24173;SDS011;12324;48.146;11.502;2022-09-20T18:31:31;7.85;;;2.67;;
24173;SDS011;12324;48.146;11.502;2022-09-20T18:34:03;8.25;;;2.53;;
24173;SDS011;12324;48.146;11.502;2022-09-20T18:36:32;5.85;;;2.65;;
24173;SDS011;12324;48.146;11.502;2022-09-20T18:39:01;4.78;;;2.22;;
24173;SDS011;12324;48.146;11.502;2022-09-20T18:41:32;9.73;;;2.83;;
24173;SDS011;12324;48.146;11.502;2022-09-20T18:44:01;9.32;;;3.83;;
24173;SDS011;12324;48.146;11.502;2022-09-20T18:46:29;8.52;;;2.30;;
24173;SDS011;12324;48.146;11.502;2022-09-20T18:48:57;11.32;;;3.90;;
24173;SDS011;12324;48.146;11.502;2022-09-20T18:51:27;7.38;;;2.92;;
24173;SDS011;12324;48.146;11.502;2022-09-20T18:53:54;14.13;;;4.22;;
24173;SDS011;12324;48.146;11.502;2022-09-20T18:56:23;9.57;;;4.22;;
24173;SDS011;12324;48.146;11.502;2022-09-20T18:58:51;9.90;;;3.85;;
24173;SDS011;12324;48.146;11.502;2022-09-20T19:01:41;11.38;;;4.10;;
24173;SDS011;12324;48.146;11.502;2022-09-20T19:04:28;10.98;;;3.53;;
24173;SDS011;12324;48.146;11.502;2022-09-20T19:09:56;9.07;;;2.88;;
24173;SDS011;12324;48.146;11.502;2022-09-20T19:12:44;6.03;;;2.47;;
24173;SDS011;12324;48.146;11.502;2022-09-20T19:15:47;5.25;;;2.38;;
24173;SDS011;12324;48.146;11.502;2022-09-20T19:18:52;10.07;;;3.15;;
24173;SDS011;12324;48.146;11.502;2022-09-20T19:21:27;5.78;;;2.50;;
24173;SDS011;12324;48.146;11.502;2022-09-20T19:26:52;6.63;;;2.47;;
24173;SDS011;12324;48.146;11.502;2022-09-20T19:29:20;8.98;;;3.00;;
24173;SDS011;12324;48.146;11.502;2022-09-20T19:31:51;4.78;;;1.98;;
24173;SDS011;12324;48.146;11.502;2022-09-20T19:34:21;3.35;;;1.90;;
24173;SDS011;12324;48.146;11.502;2022-09-20T19:39:25;7.27;;;2.27;;
24173;SDS011;12324;48.146;11.502;2022-09-20T19:42:39;6.65;;;2.17;;
24173;SDS011;12324;48.146;11.502;2022-09-20T19:50:44;5.60;;;1.85;;
24173;SDS011;12324;48.146;11.502;2022-09-20T19:53:14;4.72;;;2.03;;
24173;SDS011;12324;48.146;11.502;2022-09-20T19:55:45;15.00;;;2.47;;
24173;SDS011;12324;48.146;11.502;2022-09-20T19:58:13;4.15;;;1.75;;